createdAt,value
2022-10-28T00:04:53.986Z,9.85
2022-10-28T00:09:55.758Z,9.83
2022-10-28T00:14:57.846Z,9.91
2022-10-28T00:19:59.693Z,10.03
2022-10-28T00:25:01.970Z,10.10
2022-10-28T00:30:04.950Z,10.17
2022-10-28T00:35:08.008Z,10.26
2022-10-28T00:40:10.562Z,10.30
2022-10-28T00:45:12.801Z,10.31
2022-10-28T00:50:29.029Z,10.31
2022-10-28T00:55:33.229Z,10.33
2022-10-28T01:00:35.148Z,10.38
2022-10-28T01:05:42.794Z,10.40
2022-10-28T01:11:09.656Z,10.40
2022-10-28T01:16:56.629Z,10.40
2022-10-28T01:22:13.357Z,10.41
2022-10-28T01:27:29.906Z,10.41
2022-10-28T01:32:44.037Z,10.39
2022-10-28T01:38:00.218Z,10.39
2022-10-28T01:43:36.864Z,10.41
2022-10-28T01:48:48.094Z,10.44
2022-10-28T01:53:53.788Z,10.51
2022-10-28T01:58:59.102Z,10.52
2022-10-28T02:04:01.394Z,10.47
2022-10-28T02:09:06.545Z,10.45
2022-10-28T02:14:11.318Z,10.41
2022-10-28T02:19:25.374Z,10.34
2022-10-28T02:25:02.505Z,10.26
2022-10-28T02:30:07.029Z,10.13
2022-10-28T02:35:19.087Z,10.01
2022-10-28T02:40:25.932Z,9.97
2022-10-28T02:45:35.349Z,9.91
2022-10-28T02:50:42.358Z,9.89
2022-10-28T02:55:48.317Z,9.84
2022-10-28T03:00:51.425Z,9.77
2022-10-28T03:05:53.852Z,9.73
2022-10-28T03:10:55.910Z,9.68
2022-10-28T03:15:57.935Z,9.64
2022-10-28T03:20:59.738Z,9.64
2022-10-28T03:26:01.860Z,9.64
2022-10-28T03:31:04.940Z,9.61
2022-10-28T03:36:07.436Z,9.57
2022-10-28T03:41:09.310Z,9.51
2022-10-28T03:46:11.124Z,9.44
2022-10-28T03:51:13.140Z,9.37
2022-10-28T03:56:21.827Z,9.33
2022-10-28T04:01:23.686Z,9.32
2022-10-28T04:06:25.738Z,9.32
2022-10-28T04:11:27.511Z,9.33
2022-10-28T04:16:29.353Z,9.39
2022-10-28T04:21:31.161Z,9.46
2022-10-28T04:26:33.191Z,9.55
2022-10-28T04:31:35.002Z,9.58
2022-10-28T04:36:37.475Z,9.59
2022-10-28T04:41:39.276Z,9.59
2022-10-28T04:46:41.006Z,9.58
2022-10-28T04:51:42.978Z,9.59
2022-10-28T04:56:44.785Z,9.58
2022-10-28T05:01:47.136Z,9.58
2022-10-28T05:06:49.474Z,9.59
2022-10-28T05:11:52.086Z,9.60
2022-10-28T05:16:54.141Z,9.60
2022-10-28T05:21:56.174Z,9.61
2022-10-28T05:26:59.971Z,9.64
2022-10-28T05:32:02.307Z,9.68
2022-10-28T05:37:04.718Z,9.69
2022-10-28T05:42:06.535Z,9.70
2022-10-28T05:47:08.382Z,9.74
2022-10-28T05:52:10.662Z,9.82
2022-10-28T05:57:13.212Z,9.91
2022-10-28T06:02:15.378Z,9.99
2022-10-28T06:07:17.302Z,10.08
2022-10-28T06:12:17.683Z,10.18
2022-10-28T06:17:19.543Z,10.28
2022-10-28T06:22:21.708Z,10.38
2022-10-28T06:27:23.575Z,10.47
2022-10-28T06:32:25.653Z,10.61
2022-10-28T06:37:27.723Z,10.78
2022-10-28T06:42:29.927Z,10.98
2022-10-28T06:47:34.889Z,11.16
2022-10-28T06:52:39.633Z,11.32
2022-10-28T06:57:41.488Z,11.50
2022-10-28T07:02:45.204Z,11.68
2022-10-28T07:07:47.870Z,11.86
2022-10-28T07:12:52.835Z,12.03
2022-10-28T07:17:57.307Z,12.21
2022-10-28T07:23:00.898Z,12.37
2022-10-28T07:28:02.999Z,12.52
2022-10-28T07:33:05.840Z,12.63
2022-10-28T07:38:08.022Z,12.75
2022-10-28T07:43:10.534Z,12.83
2022-10-28T07:48:12.591Z,12.92
2022-10-28T07:58:17.715Z,13.14
2022-10-28T08:03:19.893Z,13.26
2022-10-28T08:08:21.693Z,13.36
2022-10-28T08:13:23.839Z,13.50
2022-10-28T08:18:32.858Z,13.69
2022-10-28T08:23:35.255Z,13.83
2022-10-28T08:28:36.980Z,13.91
2022-10-28T08:33:42.244Z,14.03
2022-10-28T08:38:46.372Z,14.10
2022-10-28T08:43:57.764Z,14.17
2022-10-28T08:49:03.061Z,14.25
2022-10-28T08:54:13.428Z,14.28
2022-10-28T08:59:22.721Z,14.30
2022-10-28T09:04:36.349Z,14.27
2022-10-28T09:09:38.779Z,14.40
2022-10-28T09:14:52.163Z,14.60
2022-10-28T09:20:10.010Z,14.89
2022-10-28T09:25:36.650Z,15.14
2022-10-28T09:31:06.473Z,15.47
2022-10-28T09:36:19.891Z,15.72
2022-10-28T09:41:27.764Z,15.95
2022-10-28T09:46:34.627Z,16.07
2022-10-28T09:51:47.006Z,16.21
2022-10-28T09:56:51.200Z,16.31
2022-10-28T10:01:54.042Z,16.40
2022-10-28T10:07:02.706Z,16.49
2022-10-28T10:12:10.176Z,16.64
2022-10-28T10:17:17.689Z,16.80
2022-10-28T10:22:33.407Z,17.02
2022-10-28T10:27:35.795Z,17.43
2022-10-28T10:32:45.833Z,17.56
2022-10-28T10:37:57.640Z,17.47
2022-10-28T10:43:18.177Z,17.49
2022-10-28T10:48:20.506Z,17.57
2022-10-28T10:53:32.067Z,17.78
2022-10-28T10:59:03.010Z,17.96
2022-10-28T11:04:07.530Z,17.74
2022-10-28T11:09:31.001Z,17.90
2022-10-28T11:14:33.080Z,18.39
2022-10-28T11:19:37.622Z,18.77
2022-10-28T11:24:58.244Z,19.14
2022-10-28T11:30:00.948Z,19.26
2022-10-28T11:35:09.501Z,19.13
2022-10-28T11:40:13.377Z,19.13
2022-10-28T11:45:44.696Z,19.52
2022-10-28T11:51:12.208Z,19.90
2022-10-28T11:56:34.612Z,20.18
2022-10-28T12:02:05.114Z,20.50
2022-10-28T12:07:26.901Z,20.57
2022-10-28T12:12:50.445Z,20.32
2022-10-28T12:18:06.255Z,20.04
2022-10-28T12:23:18.876Z,19.94
2022-10-28T12:28:41.268Z,19.92
2022-10-28T12:33:47.687Z,19.67
2022-10-28T12:38:57.450Z,19.44
2022-10-28T12:44:10.073Z,19.22
2022-10-28T12:49:32.778Z,18.96
2022-10-28T12:54:58.029Z,18.76
2022-10-28T13:00:02.666Z,18.89
2022-10-28T13:05:06.111Z,19.11
2022-10-28T13:10:29.885Z,19.23
2022-10-28T13:15:41.476Z,19.40
2022-10-28T13:20:53.997Z,19.47
2022-10-28T13:26:07.858Z,19.30
2022-10-28T13:31:10.511Z,19.24
2022-10-28T13:36:21.390Z,19.25
2022-10-28T13:41:28.750Z,19.31
2022-10-28T13:47:22.706Z,19.09
2022-10-28T13:52:25.270Z,18.78
2022-10-28T13:57:38.264Z,18.72
2022-10-28T14:02:46.628Z,18.76
2022-10-28T14:08:01.753Z,18.82
2022-10-28T14:13:20.623Z,18.72
2022-10-28T14:23:49.304Z,18.07
2022-10-28T14:28:52.723Z,17.79
2022-10-28T14:33:54.494Z,17.50
2022-10-28T14:39:37.004Z,17.36
2022-10-28T14:44:57.760Z,17.32
2022-10-28T14:50:03.485Z,17.17
2022-10-28T14:55:07.544Z,16.92
2022-10-28T15:00:19.129Z,16.62
2022-10-28T15:05:24.869Z,16.30
2022-10-28T15:10:30.108Z,16.00
2022-10-28T15:15:37.364Z,15.71
2022-10-28T15:20:39.559Z,15.41
2022-10-28T15:25:41.848Z,15.08
2022-10-28T15:30:46.608Z,14.77
2022-10-28T15:35:48.945Z,14.51
2022-10-28T15:40:51.788Z,14.29
2022-10-28T15:45:54.556Z,14.09
2022-10-28T15:51:22.978Z,13.89
2022-10-28T15:56:26.742Z,13.71
2022-10-28T16:01:39.689Z,13.55
2022-10-28T16:06:41.973Z,13.39
2022-10-28T16:11:48.670Z,13.27
2022-10-28T16:17:15.644Z,13.13
2022-10-28T16:22:19.055Z,13.00
2022-10-28T16:27:22.504Z,12.88
2022-10-28T16:32:38.709Z,12.81
2022-10-28T16:37:44.640Z,12.70
2022-10-28T16:42:47.951Z,12.60
2022-10-28T16:47:49.756Z,12.53
2022-10-28T16:52:54.292Z,12.50
2022-10-28T16:57:56.610Z,12.44
2022-10-28T17:02:59.282Z,12.36
2022-10-28T17:08:05.794Z,12.31
2022-10-28T17:13:15.384Z,12.24
2022-10-28T17:18:17.199Z,12.15
2022-10-28T17:23:18.926Z,12.09
2022-10-28T17:28:20.768Z,12.03
2022-10-28T17:33:23.622Z,11.99
2022-10-28T17:38:26.114Z,11.96
2022-10-28T17:43:28.037Z,11.94
2022-10-28T17:48:30.330Z,11.93
2022-10-28T17:59:40.651Z,11.87
2022-10-28T18:04:42.466Z,11.85
2022-10-28T18:09:44.415Z,11.79
2022-10-28T18:14:52.937Z,11.73
2022-10-28T18:20:02.405Z,11.75
2022-10-28T18:25:04.975Z,11.74
2022-10-28T18:30:07.578Z,11.71
2022-10-28T18:35:09.599Z,11.71
2022-10-28T18:40:12.299Z,11.71
2022-10-28T18:45:14.341Z,11.71
2022-10-28T18:50:16.530Z,11.69
2022-10-28T18:55:18.344Z,11.67
2022-10-28T19:00:20.719Z,11.63
2022-10-28T19:05:22.534Z,11.58
2022-10-28T19:10:24.542Z,11.57
2022-10-28T19:15:26.666Z,11.55
2022-10-28T19:20:28.715Z,11.51
2022-10-28T19:25:30.484Z,11.45
2022-10-28T19:30:32.772Z,11.39
2022-10-28T19:35:34.966Z,11.36
2022-10-28T19:40:37.034Z,11.34
2022-10-28T19:45:46.908Z,11.35
2022-10-28T19:50:57.324Z,11.36
2022-10-28T19:56:01.788Z,11.37
2022-10-28T20:01:06.579Z,11.38
2022-10-28T20:06:11.096Z,11.36
2022-10-28T20:11:16.178Z,11.34
2022-10-28T20:16:19.672Z,11.31
2022-10-28T20:21:24.317Z,11.24
2022-10-28T20:26:31.747Z,11.21
2022-10-28T20:31:33.862Z,11.18
2022-10-28T20:36:38.406Z,11.13
2022-10-28T20:41:41.974Z,11.12
2022-10-28T20:46:48.288Z,11.14
2022-10-28T20:51:50.323Z,11.13
2022-10-28T20:57:11.967Z,11.11
2022-10-28T21:02:27.387Z,11.10
2022-10-28T21:07:29.540Z,11.11
2022-10-28T21:12:36.643Z,11.11
2022-10-28T21:17:39.135Z,11.10
2022-10-28T21:22:40.943Z,11.08
2022-10-28T21:27:42.888Z,11.06
2022-10-28T21:32:47.635Z,11.04
2022-10-28T21:38:09.890Z,11.02
2022-10-28T21:43:18.199Z,11.00
2022-10-28T21:48:28.117Z,10.98
2022-10-28T21:53:35.794Z,10.96
2022-10-28T21:58:39.514Z,10.94
2022-10-28T22:03:41.548Z,10.93
2022-10-28T22:08:49.926Z,10.93
2022-10-28T22:14:03.991Z,10.91
2022-10-28T22:19:08.734Z,10.92
2022-10-28T22:24:10.936Z,10.93
2022-10-28T22:29:12.795Z,10.92
2022-10-28T22:34:14.774Z,10.90
2022-10-28T22:39:16.659Z,10.91
2022-10-28T22:44:18.726Z,10.90
2022-10-28T22:49:22.660Z,10.90
2022-10-28T22:54:24.537Z,10.90
2022-10-28T22:59:26.739Z,10.90
2022-10-28T23:04:28.821Z,10.89
2022-10-28T23:09:32.623Z,10.89
2022-10-28T23:14:38.619Z,10.88
2022-10-28T23:19:40.476Z,10.87
2022-10-28T23:24:42.455Z,10.87
2022-10-28T23:29:44.299Z,10.87
2022-10-28T23:34:46.221Z,10.87
2022-10-28T23:39:48.193Z,10.86
2022-10-28T23:45:10.848Z,10.82
2022-10-28T23:50:17.580Z,10.76
2022-10-28T23:55:19.527Z,10.75
